sensor_id;sensor_type;location;lat;lon;timestamp;temperature;humidity
7762;DHT22;3925;48.636;9.516;2023-03-01T00:01:28;-0.40;99.90
7762;DHT22;3925;48.636;9.516;2023-03-01T00:03:56;-0.30;99.90
7762;DHT22;3925;48.636;9.516;2023-03-01T00:06:24;-0.10;99.90
7762;DHT22;3925;48.636;9.516;2023-03-01T00:08:51;0.10;99.90
7762;DHT22;3925;48.636;9.516;2023-03-01T00:11:19;0.20;99.90
7762;DHT22;3925;48.636;9.516;2023-03-01T00:13:50;0.30;99.90
7762;DHT22;3925;48.636;9.516;2023-03-01T00:16:19;0.00;99.90
7762;DHT22;3925;48.636;9.516;2023-03-01T00:18:46;0.00;99.90
7762;DHT22;3925;48.636;9.516;2023-03-01T00:21:13;0.00;99.90
7762;DHT22;3925;48.636;9.516;2023-03-01T00:23:41;-0.10;99.90
7762;DHT22;3925;48.636;9.516;2023-03-01T00:26:09;0.00;99.90
7762;DHT22;3925;48.636;9.516;2023-03-01T00:28:36;0.30;99.90
7762;DHT22;3925;48.636;9.516;2023-03-01T00:31:09;0.30;99.90
7762;DHT22;3925;48.636;9.516;2023-03-01T00:33:36;0.10;99.90
7762;DHT22;3925;48.636;9.516;2023-03-01T00:36:04;0.00;99.90
7762;DHT22;3925;48.636;9.516;2023-03-01T00:38:34;-0.10;99.90
7762;DHT22;3925;48.636;9.516;2023-03-01T00:41:07;-0.10;99.90
7762;DHT22;3925;48.636;9.516;2023-03-01T00:43:35;-0.10;99.90
7762;DHT22;3925;48.636;9.516;2023-03-01T00:46:04;0.00;99.90
7762;DHT22;3925;48.636;9.516;2023-03-01T00:48:31;0.20;99.90
7762;DHT22;3925;48.636;9.516;2023-03-01T00:51:05;0.50;99.90
7762;DHT22;3925;48.636;9.516;2023-03-01T00:53:32;0.10;99.90
7762;DHT22;3925;48.636;9.516;2023-03-01T00:55:58;0.10;99.90
7762;DHT22;3925;48.636;9.516;2023-03-01T00:58:25;0.10;99.90
7762;DHT22;3925;48.636;9.516;2023-03-01T01:00:52;0.20;99.90
7762;DHT22;3925;48.636;9.516;2023-03-01T01:03:21;0.10;99.90
7762;DHT22;3925;48.636;9.516;2023-03-01T01:05:50;0.10;99.90
7762;DHT22;3925;48.636;9.516;2023-03-01T01:08:17;0.20;99.90
7762;DHT22;3925;48.636;9.516;2023-03-01T01:10:44;0.40;99.90
7762;DHT22;3925;48.636;9.516;2023-03-01T01:13:13;0.20;99.90
7762;DHT22;3925;48.636;9.516;2023-03-01T01:15:40;0.10;99.90
7762;DHT22;3925;48.636;9.516;2023-03-01T01:18:07;0.30;99.90
7762;DHT22;3925;48.636;9.516;2023-03-01T01:20:36;0.30;99.90
7762;DHT22;3925;48.636;9.516;2023-03-01T01:23:05;0.10;99.90
7762;DHT22;3925;48.636;9.516;2023-03-01T01:25:34;0.00;99.90
7762;DHT22;3925;48.636;9.516;2023-03-01T01:28:02;0.00;99.90
7762;DHT22;3925;48.636;9.516;2023-03-01T01:30:28;0.10;99.90
7762;DHT22;3925;48.636;9.516;2023-03-01T01:32:55;0.00;99.90
7762;DHT22;3925;48.636;9.516;2023-03-01T01:35:22;0.10;99.90
7762;DHT22;3925;48.636;9.516;2023-03-01T01:37:50;0.10;99.90
7762;DHT22;3925;48.636;9.516;2023-03-01T01:40:17;0.30;99.90
7762;DHT22;3925;48.636;9.516;2023-03-01T01:42:44;0.20;99.90
7762;DHT22;3925;48.636;9.516;2023-03-01T01:45:29;0.30;99.90
7762;DHT22;3925;48.636;9.516;2023-03-01T01:48:00;0.40;99.90
7762;DHT22;3925;48.636;9.516;2023-03-01T01:50:29;0.50;99.90
7762;DHT22;3925;48.636;9.516;2023-03-01T01:53:09;0.50;99.90
7762;DHT22;3925;48.636;9.516;2023-03-01T01:55:42;0.50;99.90
7762;DHT22;3925;48.636;9.516;2023-03-01T01:58:11;0.50;99.90
7762;DHT22;3925;48.636;9.516;2023-03-01T02:00:40;0.60;99.90
7762;DHT22;3925;48.636;9.516;2023-03-01T02:03:09;0.90;99.90
7762;DHT22;3925;48.636;9.516;2023-03-01T02:05:40;1.10;99.90
7762;DHT22;3925;48.636;9.516;2023-03-01T02:08:14;1.30;99.90
7762;DHT22;3925;48.636;9.516;2023-03-01T02:10:41;1.30;99.90
7762;DHT22;3925;48.636;9.516;2023-03-01T02:13:09;1.30;99.90
7762;DHT22;3925;48.636;9.516;2023-03-01T02:15:37;1.20;99.90
7762;DHT22;3925;48.636;9.516;2023-03-01T02:18:05;1.40;99.90
7762;DHT22;3925;48.636;9.516;2023-03-01T02:20:35;1.50;99.90
7762;DHT22;3925;48.636;9.516;2023-03-01T02:23:03;1.60;99.90
7762;DHT22;3925;48.636;9.516;2023-03-01T02:25:38;1.70;99.90
7762;DHT22;3925;48.636;9.516;2023-03-01T02:28:17;1.50;99.90
7762;DHT22;3925;48.636;9.516;2023-03-01T02:30:46;1.50;99.90
7762;DHT22;3925;48.636;9.516;2023-03-01T02:33:27;1.40;99.90
7762;DHT22;3925;48.636;9.516;2023-03-01T02:35:58;1.30;99.90
7762;DHT22;3925;48.636;9.516;2023-03-01T02:38:26;1.20;99.90
7762;DHT22;3925;48.636;9.516;2023-03-01T02:40:54;1.10;99.90
7762;DHT22;3925;48.636;9.516;2023-03-01T02:43:29;1.20;99.90
7762;DHT22;3925;48.636;9.516;2023-03-01T02:45:59;1.40;99.90
7762;DHT22;3925;48.636;9.516;2023-03-01T02:48:43;1.50;99.90
7762;DHT22;3925;48.636;9.516;2023-03-01T02:51:31;1.50;99.90
7762;DHT22;3925;48.636;9.516;2023-03-01T02:54:09;1.20;99.90
7762;DHT22;3925;48.636;9.516;2023-03-01T02:56:37;1.30;99.90
7762;DHT22;3925;48.636;9.516;2023-03-01T02:59:05;1.40;99.90
7762;DHT22;3925;48.636;9.516;2023-03-01T03:01:33;1.60;99.90
7762;DHT22;3925;48.636;9.516;2023-03-01T03:04:04;1.50;99.90
7762;DHT22;3925;48.636;9.516;2023-03-01T03:06:32;1.50;99.90
7762;DHT22;3925;48.636;9.516;2023-03-01T03:08:59;1.50;99.90
7762;DHT22;3925;48.636;9.516;2023-03-01T03:11:26;1.60;99.90
7762;DHT22;3925;48.636;9.516;2023-03-01T03:13:53;1.60;99.90
7762;DHT22;3925;48.636;9.516;2023-03-01T03:16:21;1.40;99.90
7762;DHT22;3925;48.636;9.516;2023-03-01T03:18:48;1.20;99.90
7762;DHT22;3925;48.636;9.516;2023-03-01T03:21:15;1.10;99.90
7762;DHT22;3925;48.636;9.516;2023-03-01T03:23:42;1.10;99.90
7762;DHT22;3925;48.636;9.516;2023-03-01T03:26:09;1.20;99.90
7762;DHT22;3925;48.636;9.516;2023-03-01T03:28:38;1.40;99.90
7762;DHT22;3925;48.636;9.516;2023-03-01T03:31:05;1.70;99.90
7762;DHT22;3925;48.636;9.516;2023-03-01T03:33:34;1.90;99.90
7762;DHT22;3925;48.636;9.516;2023-03-01T03:36:01;1.80;99.90
7762;DHT22;3925;48.636;9.516;2023-03-01T03:38:27;1.60;99.90
7762;DHT22;3925;48.636;9.516;2023-03-01T03:41:00;1.30;99.90
7762;DHT22;3925;48.636;9.516;2023-03-01T03:43:27;1.30;99.90
7762;DHT22;3925;48.636;9.516;2023-03-01T03:45:54;1.20;99.90
7762;DHT22;3925;48.636;9.516;2023-03-01T03:48:23;1.50;99.90
7762;DHT22;3925;48.636;9.516;2023-03-01T03:50:53;1.20;99.90
7762;DHT22;3925;48.636;9.516;2023-03-01T03:53:21;1.50;99.90
7762;DHT22;3925;48.636;9.516;2023-03-01T03:55:48;1.70;99.90
7762;DHT22;3925;48.636;9.516;2023-03-01T03:58:17;1.80;99.90
7762;DHT22;3925;48.636;9.516;2023-03-01T04:00:46;1.60;99.90
7762;DHT22;3925;48.636;9.516;2023-03-01T04:03:15;1.60;99.90
7762;DHT22;3925;48.636;9.516;2023-03-01T04:05:42;1.70;99.90
7762;DHT22;3925;48.636;9.516;2023-03-01T04:08:11;1.80;99.90
7762;DHT22;3925;48.636;9.516;2023-03-01T04:10:39;1.80;99.90
7762;DHT22;3925;48.636;9.516;2023-03-01T04:13:09;1.80;99.90
7762;DHT22;3925;48.636;9.516;2023-03-01T04:15:37;1.80;99.90
7762;DHT22;3925;48.636;9.516;2023-03-01T04:18:04;1.70;99.90
7762;DHT22;3925;48.636;9.516;2023-03-01T04:20:34;1.70;99.90
7762;DHT22;3925;48.636;9.516;2023-03-01T04:23:02;1.50;99.90
7762;DHT22;3925;48.636;9.516;2023-03-01T04:25:39;1.80;99.90
7762;DHT22;3925;48.636;9.516;2023-03-01T04:28:06;1.50;99.90
7762;DHT22;3925;48.636;9.516;2023-03-01T04:30:35;1.90;99.90
7762;DHT22;3925;48.636;9.516;2023-03-01T04:33:03;1.90;99.90
7762;DHT22;3925;48.636;9.516;2023-03-01T04:35:30;2.00;99.90
7762;DHT22;3925;48.636;9.516;2023-03-01T04:37:57;2.10;99.90
7762;DHT22;3925;48.636;9.516;2023-03-01T04:40:25;2.20;99.90
7762;DHT22;3925;48.636;9.516;2023-03-01T04:42:53;2.10;99.90
7762;DHT22;3925;48.636;9.516;2023-03-01T04:45:20;2.10;99.90
7762;DHT22;3925;48.636;9.516;2023-03-01T04:47:47;2.20;99.90
7762;DHT22;3925;48.636;9.516;2023-03-01T04:50:16;2.10;99.90
7762;DHT22;3925;48.636;9.516;2023-03-01T04:52:46;1.90;99.90
7762;DHT22;3925;48.636;9.516;2023-03-01T04:55:14;2.00;99.90
7762;DHT22;3925;48.636;9.516;2023-03-01T04:57:40;1.90;99.90
7762;DHT22;3925;48.636;9.516;2023-03-01T05:00:12;2.20;99.90
7762;DHT22;3925;48.636;9.516;2023-03-01T05:02:48;2.20;99.90
7762;DHT22;3925;48.636;9.516;2023-03-01T05:05:22;2.00;99.90
7762;DHT22;3925;48.636;9.516;2023-03-01T05:07:52;1.60;99.90
7762;DHT22;3925;48.636;9.516;2023-03-01T05:10:19;1.60;99.90
7762;DHT22;3925;48.636;9.516;2023-03-01T05:12:46;1.40;99.90
7762;DHT22;3925;48.636;9.516;2023-03-01T05:15:15;1.60;99.90
7762;DHT22;3925;48.636;9.516;2023-03-01T05:17:41;1.70;99.90
7762;DHT22;3925;48.636;9.516;2023-03-01T05:20:10;1.80;99.90
7762;DHT22;3925;48.636;9.516;2023-03-01T05:22:37;1.70;99.90
7762;DHT22;3925;48.636;9.516;2023-03-01T05:25:06;1.60;99.90
7762;DHT22;3925;48.636;9.516;2023-03-01T05:27:33;1.40;99.90
7762;DHT22;3925;48.636;9.516;2023-03-01T05:30:00;1.30;99.90
7762;DHT22;3925;48.636;9.516;2023-03-01T05:32:41;1.60;99.90
7762;DHT22;3925;48.636;9.516;2023-03-01T05:35:10;1.50;99.90
7762;DHT22;3925;48.636;9.516;2023-03-01T05:37:39;1.40;99.90
7762;DHT22;3925;48.636;9.516;2023-03-01T05:40:08;1.40;99.90
7762;DHT22;3925;48.636;9.516;2023-03-01T05:42:42;1.20;99.90
7762;DHT22;3925;48.636;9.516;2023-03-01T05:45:09;1.10;99.90
7762;DHT22;3925;48.636;9.516;2023-03-01T05:47:39;1.50;99.90
7762;DHT22;3925;48.636;9.516;2023-03-01T05:50:10;1.30;99.90
7762;DHT22;3925;48.636;9.516;2023-03-01T05:52:37;1.20;99.90
7762;DHT22;3925;48.636;9.516;2023-03-01T05:55:05;1.10;99.90
7762;DHT22;3925;48.636;9.516;2023-03-01T05:57:32;1.30;99.90
7762;DHT22;3925;48.636;9.516;2023-03-01T05:59:59;1.10;99.90
7762;DHT22;3925;48.636;9.516;2023-03-01T06:02:26;0.90;99.90
7762;DHT22;3925;48.636;9.516;2023-03-01T06:04:54;0.80;99.90
7762;DHT22;3925;48.636;9.516;2023-03-01T06:07:21;0.90;99.90
7762;DHT22;3925;48.636;9.516;2023-03-01T06:09:47;0.70;99.90
7762;DHT22;3925;48.636;9.516;2023-03-01T06:12:14;0.60;99.90
7762;DHT22;3925;48.636;9.516;2023-03-01T06:14:41;0.60;99.90
7762;DHT22;3925;48.636;9.516;2023-03-01T06:17:08;0.70;99.90
7762;DHT22;3925;48.636;9.516;2023-03-01T06:19:35;0.70;99.90
7762;DHT22;3925;48.636;9.516;2023-03-01T06:22:03;0.60;99.90
7762;DHT22;3925;48.636;9.516;2023-03-01T06:24:30;0.80;99.90
7762;DHT22;3925;48.636;9.516;2023-03-01T06:26:57;0.90;99.90
7762;DHT22;3925;48.636;9.516;2023-03-01T06:29:24;0.90;99.90
7762;DHT22;3925;48.636;9.516;2023-03-01T06:31:51;1.10;99.90
7762;DHT22;3925;48.636;9.516;2023-03-01T06:34:18;1.00;99.90
7762;DHT22;3925;48.636;9.516;2023-03-01T06:36:46;1.00;99.90
7762;DHT22;3925;48.636;9.516;2023-03-01T06:39:14;1.30;99.90
7762;DHT22;3925;48.636;9.516;2023-03-01T06:41:44;1.20;99.90
7762;DHT22;3925;48.636;9.516;2023-03-01T06:44:11;1.40;99.90
7762;DHT22;3925;48.636;9.516;2023-03-01T06:46:39;1.40;99.90
7762;DHT22;3925;48.636;9.516;2023-03-01T06:49:06;1.50;99.90
7762;DHT22;3925;48.636;9.516;2023-03-01T06:51:35;1.50;99.90
7762;DHT22;3925;48.636;9.516;2023-03-01T06:54:02;1.50;99.90
7762;DHT22;3925;48.636;9.516;2023-03-01T06:56:31;1.40;99.90
7762;DHT22;3925;48.636;9.516;2023-03-01T06:58:58;1.40;99.90
7762;DHT22;3925;48.636;9.516;2023-03-01T07:01:25;1.70;99.90
7762;DHT22;3925;48.636;9.516;2023-03-01T07:03:52;1.80;99.90
7762;DHT22;3925;48.636;9.516;2023-03-01T07:06:18;1.70;99.90
7762;DHT22;3925;48.636;9.516;2023-03-01T07:08:45;1.70;99.90
7762;DHT22;3925;48.636;9.516;2023-03-01T07:11:12;1.80;99.90
7762;DHT22;3925;48.636;9.516;2023-03-01T07:13:41;1.70;99.90
7762;DHT22;3925;48.636;9.516;2023-03-01T07:16:08;1.80;99.90
7762;DHT22;3925;48.636;9.516;2023-03-01T07:18:35;2.00;99.90
7762;DHT22;3925;48.636;9.516;2023-03-01T07:21:06;2.00;99.90
7762;DHT22;3925;48.636;9.516;2023-03-01T07:23:33;1.90;99.90
7762;DHT22;3925;48.636;9.516;2023-03-01T07:26:00;2.00;99.90
7762;DHT22;3925;48.636;9.516;2023-03-01T07:28:27;2.30;99.90
7762;DHT22;3925;48.636;9.516;2023-03-01T07:31:00;2.30;99.90
7762;DHT22;3925;48.636;9.516;2023-03-01T07:33:28;2.80;99.90
7762;DHT22;3925;48.636;9.516;2023-03-01T07:35:58;3.30;99.90
7762;DHT22;3925;48.636;9.516;2023-03-01T07:38:26;4.20;99.90
7762;DHT22;3925;48.636;9.516;2023-03-01T07:40:53;5.10;99.90
7762;DHT22;3925;48.636;9.516;2023-03-01T07:43:20;5.60;99.90
7762;DHT22;3925;48.636;9.516;2023-03-01T07:45:47;5.90;99.90
7762;DHT22;3925;48.636;9.516;2023-03-01T07:48:15;6.30;99.00
7762;DHT22;3925;48.636;9.516;2023-03-01T07:50:42;6.20;98.40
7762;DHT22;3925;48.636;9.516;2023-03-01T07:53:09;6.50;98.20
7762;DHT22;3925;48.636;9.516;2023-03-01T07:55:36;7.00;97.70
7762;DHT22;3925;48.636;9.516;2023-03-01T07:58:03;7.10;96.60
7762;DHT22;3925;48.636;9.516;2023-03-01T08:00:31;7.00;96.30
7762;DHT22;3925;48.636;9.516;2023-03-01T08:02:59;7.70;95.80
7762;DHT22;3925;48.636;9.516;2023-03-01T08:05:27;7.80;94.70
7762;DHT22;3925;48.636;9.516;2023-03-01T08:07:54;8.70;93.80
7762;DHT22;3925;48.636;9.516;2023-03-01T08:10:21;9.50;91.90
7762;DHT22;3925;48.636;9.516;2023-03-01T08:12:51;10.80;87.70
7762;DHT22;3925;48.636;9.516;2023-03-01T08:15:18;11.90;82.70
7762;DHT22;3925;48.636;9.516;2023-03-01T08:17:45;12.70;75.80
7762;DHT22;3925;48.636;9.516;2023-03-01T08:20:12;13.00;72.00
7762;DHT22;3925;48.636;9.516;2023-03-01T08:22:40;13.00;70.90
7762;DHT22;3925;48.636;9.516;2023-03-01T08:25:08;12.40;69.00
7762;DHT22;3925;48.636;9.516;2023-03-01T08:27:34;11.30;69.60
7762;DHT22;3925;48.636;9.516;2023-03-01T08:30:02;11.30;71.90
7762;DHT22;3925;48.636;9.516;2023-03-01T08:32:29;11.00;71.40
7762;DHT22;3925;48.636;9.516;2023-03-01T08:34:56;10.80;73.20
7762;DHT22;3925;48.636;9.516;2023-03-01T08:37:23;10.90;74.20
7762;DHT22;3925;48.636;9.516;2023-03-01T08:39:51;10.80;72.80
7762;DHT22;3925;48.636;9.516;2023-03-01T08:42:18;10.80;71.30
7762;DHT22;3925;48.636;9.516;2023-03-01T08:44:45;11.30;72.50
7762;DHT22;3925;48.636;9.516;2023-03-01T08:47:12;12.20;70.30
7762;DHT22;3925;48.636;9.516;2023-03-01T08:49:39;12.10;68.20
7762;DHT22;3925;48.636;9.516;2023-03-01T08:52:05;11.90;65.30
7762;DHT22;3925;48.636;9.516;2023-03-01T08:54:32;11.70;66.50
7762;DHT22;3925;48.636;9.516;2023-03-01T08:57:03;11.10;68.60
7762;DHT22;3925;48.636;9.516;2023-03-01T08:59:30;11.20;67.90
7762;DHT22;3925;48.636;9.516;2023-03-01T09:02:01;11.00;68.10
7762;DHT22;3925;48.636;9.516;2023-03-01T09:04:27;10.80;68.70
7762;DHT22;3925;48.636;9.516;2023-03-01T09:06:54;11.60;67.10
7762;DHT22;3925;48.636;9.516;2023-03-01T09:09:21;13.00;65.00
7762;DHT22;3925;48.636;9.516;2023-03-01T09:11:48;14.50;62.20
7762;DHT22;3925;48.636;9.516;2023-03-01T09:14:17;15.70;57.00
7762;DHT22;3925;48.636;9.516;2023-03-01T09:16:44;17.00;54.00
7762;DHT22;3925;48.636;9.516;2023-03-01T09:19:13;17.00;51.00
7762;DHT22;3925;48.636;9.516;2023-03-01T09:21:40;17.50;51.20
7762;DHT22;3925;48.636;9.516;2023-03-01T09:24:08;16.30;50.40
7762;DHT22;3925;48.636;9.516;2023-03-01T09:26:38;16.30;49.10
7762;DHT22;3925;48.636;9.516;2023-03-01T09:29:05;15.30;51.80
7762;DHT22;3925;48.636;9.516;2023-03-01T09:31:33;15.70;51.30
7762;DHT22;3925;48.636;9.516;2023-03-01T09:34:00;15.90;50.60
7762;DHT22;3925;48.636;9.516;2023-03-01T09:36:26;16.20;49.20
7762;DHT22;3925;48.636;9.516;2023-03-01T09:38:54;16.90;49.50
7762;DHT22;3925;48.636;9.516;2023-03-01T09:44:28;16.60;47.00
7762;DHT22;3925;48.636;9.516;2023-03-01T09:46:59;16.00;47.80
7762;DHT22;3925;48.636;9.516;2023-03-01T09:49:28;15.10;48.20
7762;DHT22;3925;48.636;9.516;2023-03-01T09:52:00;15.00;49.60
7762;DHT22;3925;48.636;9.516;2023-03-01T09:54:27;15.20;48.50
7762;DHT22;3925;48.636;9.516;2023-03-01T09:57:03;15.30;49.40
7762;DHT22;3925;48.636;9.516;2023-03-01T09:59:42;15.40;49.00
7762;DHT22;3925;48.636;9.516;2023-03-01T10:02:23;15.70;49.50
7762;DHT22;3925;48.636;9.516;2023-03-01T10:04:51;16.70;48.30
7762;DHT22;3925;48.636;9.516;2023-03-01T10:07:30;17.10;45.80
7762;DHT22;3925;48.636;9.516;2023-03-01T10:09:59;16.00;46.20
7762;DHT22;3925;48.636;9.516;2023-03-01T10:12:34;15.80;47.80
7762;DHT22;3925;48.636;9.516;2023-03-01T10:15:05;15.20;48.30
7762;DHT22;3925;48.636;9.516;2023-03-01T10:17:41;15.90;48.70
7762;DHT22;3925;48.636;9.516;2023-03-01T10:20:19;16.10;47.50
7762;DHT22;3925;48.636;9.516;2023-03-01T10:22:47;15.90;47.70
7762;DHT22;3925;48.636;9.516;2023-03-01T10:25:29;16.60;46.40
7762;DHT22;3925;48.636;9.516;2023-03-01T10:28:02;15.90;47.40
7762;DHT22;3925;48.636;9.516;2023-03-01T10:30:35;16.10;47.50
7762;DHT22;3925;48.636;9.516;2023-03-01T10:33:13;15.90;45.70
7762;DHT22;3925;48.636;9.516;2023-03-01T10:35:41;15.90;47.10
7762;DHT22;3925;48.636;9.516;2023-03-01T10:38:11;15.30;46.90
7762;DHT22;3925;48.636;9.516;2023-03-01T10:40:50;14.80;49.20
7762;DHT22;3925;48.636;9.516;2023-03-01T10:43:19;15.80;50.40
7762;DHT22;3925;48.636;9.516;2023-03-01T10:45:46;16.10;47.60
7762;DHT22;3925;48.636;9.516;2023-03-01T10:48:16;16.30;47.50
7762;DHT22;3925;48.636;9.516;2023-03-01T10:50:45;15.60;47.50
7762;DHT22;3925;48.636;9.516;2023-03-01T10:53:22;16.70;47.00
7762;DHT22;3925;48.636;9.516;2023-03-01T10:55:59;16.80;46.30
7762;DHT22;3925;48.636;9.516;2023-03-01T10:58:27;16.40;46.10
7762;DHT22;3925;48.636;9.516;2023-03-01T11:00:56;16.20;46.40
7762;DHT22;3925;48.636;9.516;2023-03-01T11:03:26;16.60;46.40
7762;DHT22;3925;48.636;9.516;2023-03-01T11:05:59;16.50;46.00
7762;DHT22;3925;48.636;9.516;2023-03-01T11:08:35;16.90;46.50
7762;DHT22;3925;48.636;9.516;2023-03-01T11:11:23;17.30;45.90
7762;DHT22;3925;48.636;9.516;2023-03-01T11:13:58;17.30;45.60
7762;DHT22;3925;48.636;9.516;2023-03-01T11:16:32;17.60;44.00
7762;DHT22;3925;48.636;9.516;2023-03-01T11:19:13;16.90;44.30
7762;DHT22;3925;48.636;9.516;2023-03-01T11:21:43;16.60;46.70
7762;DHT22;3925;48.636;9.516;2023-03-01T11:24:16;15.50;47.30
7762;DHT22;3925;48.636;9.516;2023-03-01T11:26:47;15.40;48.20
7762;DHT22;3925;48.636;9.516;2023-03-01T11:29:33;15.70;47.00
7762;DHT22;3925;48.636;9.516;2023-03-01T11:32:05;15.30;47.40
7762;DHT22;3925;48.636;9.516;2023-03-01T11:34:42;15.10;48.70
7762;DHT22;3925;48.636;9.516;2023-03-01T11:37:22;14.50;49.40
7762;DHT22;3925;48.636;9.516;2023-03-01T11:39:58;14.50;49.30
7762;DHT22;3925;48.636;9.516;2023-03-01T11:42:31;15.20;49.80
7762;DHT22;3925;48.636;9.516;2023-03-01T11:45:07;15.60;47.60
7762;DHT22;3925;48.636;9.516;2023-03-01T11:47:48;16.00;48.10
7762;DHT22;3925;48.636;9.516;2023-03-01T11:50:28;15.10;48.80
7762;DHT22;3925;48.636;9.516;2023-03-01T11:53:05;15.40;48.40
7762;DHT22;3925;48.636;9.516;2023-03-01T11:55:59;16.00;49.10
7762;DHT22;3925;48.636;9.516;2023-03-01T11:58:52;15.80;47.90
7762;DHT22;3925;48.636;9.516;2023-03-01T12:01:45;15.00;48.00
7762;DHT22;3925;48.636;9.516;2023-03-01T12:04:52;15.50;49.00
7762;DHT22;3925;48.636;9.516;2023-03-01T12:07:26;15.80;48.80
7762;DHT22;3925;48.636;9.516;2023-03-01T12:10:21;15.50;48.10
7762;DHT22;3925;48.636;9.516;2023-03-01T12:13:13;14.50;49.30
7762;DHT22;3925;48.636;9.516;2023-03-01T12:16:02;14.30;50.30
7762;DHT22;3925;48.636;9.516;2023-03-01T12:21:36;13.40;51.00
7762;DHT22;3925;48.636;9.516;2023-03-01T12:24:17;12.40;52.70
7762;DHT22;3925;48.636;9.516;2023-03-01T12:26:53;11.90;56.10
7762;DHT22;3925;48.636;9.516;2023-03-01T12:29:25;11.70;56.50
7762;DHT22;3925;48.636;9.516;2023-03-01T12:32:20;11.50;57.00
7762;DHT22;3925;48.636;9.516;2023-03-01T12:35:20;11.30;57.40
7762;DHT22;3925;48.636;9.516;2023-03-01T12:37:57;11.50;57.30
7762;DHT22;3925;48.636;9.516;2023-03-01T12:40:46;11.10;58.40
7762;DHT22;3925;48.636;9.516;2023-03-01T12:43:26;11.30;60.00
7762;DHT22;3925;48.636;9.516;2023-03-01T12:46:07;11.30;58.10
7762;DHT22;3925;48.636;9.516;2023-03-01T12:48:43;11.00;58.40
7762;DHT22;3925;48.636;9.516;2023-03-01T12:51:15;10.50;59.30
7762;DHT22;3925;48.636;9.516;2023-03-01T12:53:46;10.30;60.50
7762;DHT22;3925;48.636;9.516;2023-03-01T12:56:16;10.10;61.80
7762;DHT22;3925;48.636;9.516;2023-03-01T12:58:58;10.20;64.30
7762;DHT22;3925;48.636;9.516;2023-03-01T13:01:35;10.50;63.00
7762;DHT22;3925;48.636;9.516;2023-03-01T13:04:26;10.60;63.10
7762;DHT22;3925;48.636;9.516;2023-03-01T13:07:02;10.00;62.30
7762;DHT22;3925;48.636;9.516;2023-03-01T13:09:37;9.90;64.70
7762;DHT22;3925;48.636;9.516;2023-03-01T13:15:25;9.70;65.60
7762;DHT22;3925;48.636;9.516;2023-03-01T13:17:53;9.70;65.50
7762;DHT22;3925;48.636;9.516;2023-03-01T13:20:24;9.90;65.90
7762;DHT22;3925;48.636;9.516;2023-03-01T13:23:02;9.90;67.10
7762;DHT22;3925;48.636;9.516;2023-03-01T13:25:29;9.40;66.80
7762;DHT22;3925;48.636;9.516;2023-03-01T13:30:58;9.70;68.00
7762;DHT22;3925;48.636;9.516;2023-03-01T13:33:41;9.50;67.90
7762;DHT22;3925;48.636;9.516;2023-03-01T13:36:09;9.40;69.20
7762;DHT22;3925;48.636;9.516;2023-03-01T13:38:54;9.50;69.10
7762;DHT22;3925;48.636;9.516;2023-03-01T13:41:48;9.40;70.20
7762;DHT22;3925;48.636;9.516;2023-03-01T13:44:21;9.30;68.90
7762;DHT22;3925;48.636;9.516;2023-03-01T13:46:56;9.40;69.70
7762;DHT22;3925;48.636;9.516;2023-03-01T13:49:26;9.40;70.00
7762;DHT22;3925;48.636;9.516;2023-03-01T13:51:55;9.30;69.80
7762;DHT22;3925;48.636;9.516;2023-03-01T13:54:26;9.00;70.90
7762;DHT22;3925;48.636;9.516;2023-03-01T13:56:55;8.80;70.30
7762;DHT22;3925;48.636;9.516;2023-03-01T13:59:22;8.70;70.50
7762;DHT22;3925;48.636;9.516;2023-03-01T14:01:55;8.50;72.00
7762;DHT22;3925;48.636;9.516;2023-03-01T14:04:23;8.50;72.60
7762;DHT22;3925;48.636;9.516;2023-03-01T14:06:51;8.80;74.70
7762;DHT22;3925;48.636;9.516;2023-03-01T14:09:20;8.80;73.20
7762;DHT22;3925;48.636;9.516;2023-03-01T14:12:15;8.60;73.10
7762;DHT22;3925;48.636;9.516;2023-03-01T14:14:53;8.60;73.90
7762;DHT22;3925;48.636;9.516;2023-03-01T14:17:49;8.60;74.60
7762;DHT22;3925;48.636;9.516;2023-03-01T14:20:20;8.50;74.00
7762;DHT22;3925;48.636;9.516;2023-03-01T14:22:48;8.40;74.70
7762;DHT22;3925;48.636;9.516;2023-03-01T14:25:25;8.50;76.60
7762;DHT22;3925;48.636;9.516;2023-03-01T14:28:00;8.50;75.20
7762;DHT22;3925;48.636;9.516;2023-03-01T14:30:31;8.40;75.20
7762;DHT22;3925;48.636;9.516;2023-03-01T14:33:02;8.40;75.70
7762;DHT22;3925;48.636;9.516;2023-03-01T14:35:31;8.30;76.30
7762;DHT22;3925;48.636;9.516;2023-03-01T14:37:59;8.20;76.30
7762;DHT22;3925;48.636;9.516;2023-03-01T14:40:28;8.20;76.60
7762;DHT22;3925;48.636;9.516;2023-03-01T14:42:57;8.20;78.20
7762;DHT22;3925;48.636;9.516;2023-03-01T14:45:27;8.30;78.40
7762;DHT22;3925;48.636;9.516;2023-03-01T14:48:00;8.40;79.10
7762;DHT22;3925;48.636;9.516;2023-03-01T14:50:29;8.40;78.10
7762;DHT22;3925;48.636;9.516;2023-03-01T14:52:59;8.20;77.30
7762;DHT22;3925;48.636;9.516;2023-03-01T14:55:30;8.10;78.00
7762;DHT22;3925;48.636;9.516;2023-03-01T14:57:58;8.00;78.60
7762;DHT22;3925;48.636;9.516;2023-03-01T15:00:27;8.00;79.40
7762;DHT22;3925;48.636;9.516;2023-03-01T15:02:56;8.00;78.60
7762;DHT22;3925;48.636;9.516;2023-03-01T15:05:30;8.00;78.60
7762;DHT22;3925;48.636;9.516;2023-03-01T15:07:59;7.90;78.10
7762;DHT22;3925;48.636;9.516;2023-03-01T15:10:29;8.00;79.70
7762;DHT22;3925;48.636;9.516;2023-03-01T15:13:10;7.90;79.40
7762;DHT22;3925;48.636;9.516;2023-03-01T15:15:39;8.00;78.30
7762;DHT22;3925;48.636;9.516;2023-03-01T15:18:17;8.00;79.20
7762;DHT22;3925;48.636;9.516;2023-03-01T15:20:46;8.00;79.20
7762;DHT22;3925;48.636;9.516;2023-03-01T15:23:22;8.00;78.50
7762;DHT22;3925;48.636;9.516;2023-03-01T15:25:50;8.10;80.00
7762;DHT22;3925;48.636;9.516;2023-03-01T15:28:24;8.10;78.40
7762;DHT22;3925;48.636;9.516;2023-03-01T15:30:55;8.00;78.60
7762;DHT22;3925;48.636;9.516;2023-03-01T15:33:29;7.90;79.10
7762;DHT22;3925;48.636;9.516;2023-03-01T15:35:59;7.80;79.20
7762;DHT22;3925;48.636;9.516;2023-03-01T15:38:34;7.80;79.50
7762;DHT22;3925;48.636;9.516;2023-03-01T15:41:05;7.80;80.00
7762;DHT22;3925;48.636;9.516;2023-03-01T15:43:43;7.70;79.70
7762;DHT22;3925;48.636;9.516;2023-03-01T15:46:20;7.70;79.80
7762;DHT22;3925;48.636;9.516;2023-03-01T15:48:51;7.60;79.80
7762;DHT22;3925;48.636;9.516;2023-03-01T15:51:26;7.60;80.30
7762;DHT22;3925;48.636;9.516;2023-03-01T15:53:55;7.50;80.90
7762;DHT22;3925;48.636;9.516;2023-03-01T15:56:23;7.50;81.40
7762;DHT22;3925;48.636;9.516;2023-03-01T15:58:50;7.40;80.70
7762;DHT22;3925;48.636;9.516;2023-03-01T16:01:17;7.40;81.10
7762;DHT22;3925;48.636;9.516;2023-03-01T16:03:44;7.40;81.70
7762;DHT22;3925;48.636;9.516;2023-03-01T16:06:11;7.40;81.50
7762;DHT22;3925;48.636;9.516;2023-03-01T16:08:40;7.40;81.80
7762;DHT22;3925;48.636;9.516;2023-03-01T16:11:14;7.40;81.90
7762;DHT22;3925;48.636;9.516;2023-03-01T16:13:41;7.40;81.80
7762;DHT22;3925;48.636;9.516;2023-03-01T16:16:10;7.40;82.30
7762;DHT22;3925;48.636;9.516;2023-03-01T16:18:40;7.40;82.50
7762;DHT22;3925;48.636;9.516;2023-03-01T16:21:12;7.30;82.40
7762;DHT22;3925;48.636;9.516;2023-03-01T16:23:42;7.20;82.40
7762;DHT22;3925;48.636;9.516;2023-03-01T16:26:10;7.20;82.80
7762;DHT22;3925;48.636;9.516;2023-03-01T16:28:37;7.20;83.00
7762;DHT22;3925;48.636;9.516;2023-03-01T16:31:04;7.10;83.80
7762;DHT22;3925;48.636;9.516;2023-03-01T16:33:31;7.00;83.40
7762;DHT22;3925;48.636;9.516;2023-03-01T16:35:58;7.00;83.80
7762;DHT22;3925;48.636;9.516;2023-03-01T16:38:25;7.00;83.60
7762;DHT22;3925;48.636;9.516;2023-03-01T16:40:53;6.90;84.20
7762;DHT22;3925;48.636;9.516;2023-03-01T16:43:20;6.90;84.70
7762;DHT22;3925;48.636;9.516;2023-03-01T16:45:47;6.80;84.70
7762;DHT22;3925;48.636;9.516;2023-03-01T16:48:14;6.80;85.30